sensor_id;sensor_type;location;lat;lon;timestamp;temperature;humidity
12720;DHT22;6424;48.520;11.228;2022-11-30T00:00:10;2.00;99.90
12720;DHT22;6424;48.520;11.228;2022-11-30T00:02:51;2.10;99.90
12720;DHT22;6424;48.520;11.228;2022-11-30T00:05:35;2.10;99.90
12720;DHT22;6424;48.520;11.228;2022-11-30T00:08:16;2.10;99.90
12720;DHT22;6424;48.520;11.228;2022-11-30T00:10:57;2.10;99.90
12720;DHT22;6424;48.520;11.228;2022-11-30T00:13:38;2.10;99.90
12720;DHT22;6424;48.520;11.228;2022-11-30T00:16:04;2.20;99.90
12720;DHT22;6424;48.520;11.228;2022-11-30T00:18:45;2.20;99.90
12720;DHT22;6424;48.520;11.228;2022-11-30T00:21:26;2.20;99.90
12720;DHT22;6424;48.520;11.228;2022-11-30T00:24:06;2.20;99.90
12720;DHT22;6424;48.520;11.228;2022-11-30T00:26:47;2.20;99.90
12720;DHT22;6424;48.520;11.228;2022-11-30T00:29:28;2.20;99.90
12720;DHT22;6424;48.520;11.228;2022-11-30T00:32:09;2.20;99.90
12720;DHT22;6424;48.520;11.228;2022-11-30T00:34:50;2.20;99.90
12720;DHT22;6424;48.520;11.228;2022-11-30T00:37:30;2.20;99.90
12720;DHT22;6424;48.520;11.228;2022-11-30T00:40:12;2.20;99.90
12720;DHT22;6424;48.520;11.228;2022-11-30T00:42:52;2.20;99.90
12720;DHT22;6424;48.520;11.228;2022-11-30T00:45:33;2.30;99.90
12720;DHT22;6424;48.520;11.228;2022-11-30T00:48:14;2.30;99.90
12720;DHT22;6424;48.520;11.228;2022-11-30T00:50:55;2.30;99.90
12720;DHT22;6424;48.520;11.228;2022-11-30T00:53:36;2.30;99.90
12720;DHT22;6424;48.520;11.228;2022-11-30T00:56:17;2.40;99.90
12720;DHT22;6424;48.520;11.228;2022-11-30T00:58:57;2.40;99.90
12720;DHT22;6424;48.520;11.228;2022-11-30T01:01:38;2.40;99.90
12720;DHT22;6424;48.520;11.228;2022-11-30T01:04:04;2.40;99.90
12720;DHT22;6424;48.520;11.228;2022-11-30T01:06:45;2.40;99.90
12720;DHT22;6424;48.520;11.228;2022-11-30T01:09:26;2.50;99.90
12720;DHT22;6424;48.520;11.228;2022-11-30T01:12:06;2.50;99.90
12720;DHT22;6424;48.520;11.228;2022-11-30T01:14:47;2.50;99.90
12720;DHT22;6424;48.520;11.228;2022-11-30T01:17:28;2.50;99.90
12720;DHT22;6424;48.520;11.228;2022-11-30T01:20:09;2.50;99.90
12720;DHT22;6424;48.520;11.228;2022-11-30T01:22:50;2.50;99.90
12720;DHT22;6424;48.520;11.228;2022-11-30T01:25:31;2.50;99.90
12720;DHT22;6424;48.520;11.228;2022-11-30T01:28:11;2.50;99.90
12720;DHT22;6424;48.520;11.228;2022-11-30T01:31:00;2.50;99.90
12720;DHT22;6424;48.520;11.228;2022-11-30T01:33:42;2.60;99.90
12720;DHT22;6424;48.520;11.228;2022-11-30T01:36:24;2.60;99.90
12720;DHT22;6424;48.520;11.228;2022-11-30T01:39:07;2.60;99.90
12720;DHT22;6424;48.520;11.228;2022-11-30T01:41:48;2.60;99.90
12720;DHT22;6424;48.520;11.228;2022-11-30T01:47:11;2.60;99.90
12720;DHT22;6424;48.520;11.228;2022-11-30T01:50:02;2.60;99.90
12720;DHT22;6424;48.520;11.228;2022-11-30T01:52:47;2.60;99.90
12720;DHT22;6424;48.520;11.228;2022-11-30T01:55:33;2.60;99.90
12720;DHT22;6424;48.520;11.228;2022-11-30T01:58:24;2.70;99.90
12720;DHT22;6424;48.520;11.228;2022-11-30T02:01:06;2.70;99.90
12720;DHT22;6424;48.520;11.228;2022-11-30T02:04:03;2.70;99.90
12720;DHT22;6424;48.520;11.228;2022-11-30T02:06:47;2.70;99.90
12720;DHT22;6424;48.520;11.228;2022-11-30T02:09:28;2.70;99.90
12720;DHT22;6424;48.520;11.228;2022-11-30T02:15:32;2.70;99.90
12720;DHT22;6424;48.520;11.228;2022-11-30T02:18:21;2.70;99.90
12720;DHT22;6424;48.520;11.228;2022-11-30T02:29:36;2.70;99.90
12720;DHT22;6424;48.520;11.228;2022-11-30T02:32:34;2.70;99.90
12720;DHT22;6424;48.520;11.228;2022-11-30T02:35:21;2.80;99.90
12720;DHT22;6424;48.520;11.228;2022-11-30T02:38:05;2.80;99.90
12720;DHT22;6424;48.520;11.228;2022-11-30T02:40:46;2.80;99.90
12720;DHT22;6424;48.520;11.228;2022-11-30T02:43:28;2.80;99.90
12720;DHT22;6424;48.520;11.228;2022-11-30T02:49:53;2.80;99.90
12720;DHT22;6424;48.520;11.228;2022-11-30T02:52:35;2.80;99.90
12720;DHT22;6424;48.520;11.228;2022-11-30T02:55:03;2.70;99.90
12720;DHT22;6424;48.520;11.228;2022-11-30T02:57:46;2.70;99.90
12720;DHT22;6424;48.520;11.228;2022-11-30T03:00:27;2.70;99.90
12720;DHT22;6424;48.520;11.228;2022-11-30T03:03:07;2.70;99.90
12720;DHT22;6424;48.520;11.228;2022-11-30T03:05:48;2.70;99.90
12720;DHT22;6424;48.520;11.228;2022-11-30T03:08:29;2.70;99.90
12720;DHT22;6424;48.520;11.228;2022-11-30T03:11:10;2.70;99.90
12720;DHT22;6424;48.520;11.228;2022-11-30T03:13:50;2.70;99.90
12720;DHT22;6424;48.520;11.228;2022-11-30T03:16:31;2.60;99.90
12720;DHT22;6424;48.520;11.228;2022-11-30T03:19:13;2.70;99.90
12720;DHT22;6424;48.520;11.228;2022-11-30T03:21:53;2.60;99.90
12720;DHT22;6424;48.520;11.228;2022-11-30T03:24:34;2.70;99.90
12720;DHT22;6424;48.520;11.228;2022-11-30T03:27:15;2.70;99.90
12720;DHT22;6424;48.520;11.228;2022-11-30T03:29:56;2.70;99.90
12720;DHT22;6424;48.520;11.228;2022-11-30T03:32:36;2.70;99.90
12720;DHT22;6424;48.520;11.228;2022-11-30T03:35:17;2.80;99.90
12720;DHT22;6424;48.520;11.228;2022-11-30T03:37:58;2.80;99.90
12720;DHT22;6424;48.520;11.228;2022-11-30T03:40:39;2.80;99.90
12720;DHT22;6424;48.520;11.228;2022-11-30T03:43:20;2.80;99.90
12720;DHT22;6424;48.520;11.228;2022-11-30T03:46:01;2.80;99.90
12720;DHT22;6424;48.520;11.228;2022-11-30T03:48:42;2.80;99.90
12720;DHT22;6424;48.520;11.228;2022-11-30T03:51:23;2.80;99.90
12720;DHT22;6424;48.520;11.228;2022-11-30T03:54:04;2.80;99.90
12720;DHT22;6424;48.520;11.228;2022-11-30T03:56:44;2.80;99.90
12720;DHT22;6424;48.520;11.228;2022-11-30T03:59:25;2.80;99.90
12720;DHT22;6424;48.520;11.228;2022-11-30T04:02:06;2.80;99.90
12720;DHT22;6424;48.520;11.228;2022-11-30T04:04:47;2.80;99.90
12720;DHT22;6424;48.520;11.228;2022-11-30T04:07:13;2.80;99.90
12720;DHT22;6424;48.520;11.228;2022-11-30T04:09:53;2.90;99.90
12720;DHT22;6424;48.520;11.228;2022-11-30T04:12:34;2.90;99.90
12720;DHT22;6424;48.520;11.228;2022-11-30T04:15:15;2.90;99.90
12720;DHT22;6424;48.520;11.228;2022-11-30T04:17:56;2.90;99.90
12720;DHT22;6424;48.520;11.228;2022-11-30T04:20:36;2.90;99.90
12720;DHT22;6424;48.520;11.228;2022-11-30T04:23:17;2.90;99.90
12720;DHT22;6424;48.520;11.228;2022-11-30T04:25:43;2.90;99.90
12720;DHT22;6424;48.520;11.228;2022-11-30T04:28:24;2.80;99.90
12720;DHT22;6424;48.520;11.228;2022-11-30T04:30:51;2.80;99.90
12720;DHT22;6424;48.520;11.228;2022-11-30T04:33:32;2.90;99.90
12720;DHT22;6424;48.520;11.228;2022-11-30T04:36:18;2.90;99.90
12720;DHT22;6424;48.520;11.228;2022-11-30T04:38:59;2.80;99.90
12720;DHT22;6424;48.520;11.228;2022-11-30T04:41:39;2.90;99.90
12720;DHT22;6424;48.520;11.228;2022-11-30T04:44:20;2.90;99.90
12720;DHT22;6424;48.520;11.228;2022-11-30T04:47:01;2.90;99.90
12720;DHT22;6424;48.520;11.228;2022-11-30T04:49:42;2.90;99.90
12720;DHT22;6424;48.520;11.228;2022-11-30T04:52:22;2.90;99.90
12720;DHT22;6424;48.520;11.228;2022-11-30T04:55:03;2.80;99.90
12720;DHT22;6424;48.520;11.228;2022-11-30T04:57:29;2.80;99.90
12720;DHT22;6424;48.520;11.228;2022-11-30T05:00:12;2.80;99.90
12720;DHT22;6424;48.520;11.228;2022-11-30T05:02:55;2.80;99.90
12720;DHT22;6424;48.520;11.228;2022-11-30T05:05:36;2.80;99.90
12720;DHT22;6424;48.520;11.228;2022-11-30T05:08:16;2.80;99.90
12720;DHT22;6424;48.520;11.228;2022-11-30T05:10:42;2.80;99.90
12720;DHT22;6424;48.520;11.228;2022-11-30T05:13:24;2.80;99.90
12720;DHT22;6424;48.520;11.228;2022-11-30T05:16:05;2.80;99.90
12720;DHT22;6424;48.520;11.228;2022-11-30T05:18:46;2.80;99.90
12720;DHT22;6424;48.520;11.228;2022-11-30T05:21:27;2.80;99.90
12720;DHT22;6424;48.520;11.228;2022-11-30T05:24:08;2.90;99.90
12720;DHT22;6424;48.520;11.228;2022-11-30T05:26:49;2.90;99.90
12720;DHT22;6424;48.520;11.228;2022-11-30T05:29:30;2.90;99.90
12720;DHT22;6424;48.520;11.228;2022-11-30T05:32:10;2.90;99.90
12720;DHT22;6424;48.520;11.228;2022-11-30T05:34:36;2.90;99.90
12720;DHT22;6424;48.520;11.228;2022-11-30T05:37:17;2.90;99.90
12720;DHT22;6424;48.520;11.228;2022-11-30T05:39:58;2.90;99.90
12720;DHT22;6424;48.520;11.228;2022-11-30T05:42:39;2.90;99.90
12720;DHT22;6424;48.520;11.228;2022-11-30T05:45:20;2.90;99.90
12720;DHT22;6424;48.520;11.228;2022-11-30T05:48:00;2.80;99.90
12720;DHT22;6424;48.520;11.228;2022-11-30T05:50:41;2.90;99.90
12720;DHT22;6424;48.520;11.228;2022-11-30T05:53:22;2.90;99.90
12720;DHT22;6424;48.520;11.228;2022-11-30T05:56:10;2.90;99.90
12720;DHT22;6424;48.520;11.228;2022-11-30T05:58:51;2.90;99.90
12720;DHT22;6424;48.520;11.228;2022-11-30T06:01:32;2.90;99.90
12720;DHT22;6424;48.520;11.228;2022-11-30T06:04:13;3.00;99.90
12720;DHT22;6424;48.520;11.228;2022-11-30T06:06:53;3.00;99.90
12720;DHT22;6424;48.520;11.228;2022-11-30T06:09:38;2.90;99.90
12720;DHT22;6424;48.520;11.228;2022-11-30T06:12:19;3.00;99.90
12720;DHT22;6424;48.520;11.228;2022-11-30T06:14:59;3.00;99.90
12720;DHT22;6424;48.520;11.228;2022-11-30T06:17:40;3.00;99.90
12720;DHT22;6424;48.520;11.228;2022-11-30T06:20:21;3.00;99.90
12720;DHT22;6424;48.520;11.228;2022-11-30T06:23:01;3.00;99.90
12720;DHT22;6424;48.520;11.228;2022-11-30T06:25:42;3.00;99.90
12720;DHT22;6424;48.520;11.228;2022-11-30T06:28:23;3.00;99.90
12720;DHT22;6424;48.520;11.228;2022-11-30T06:31:05;3.00;99.90
12720;DHT22;6424;48.520;11.228;2022-11-30T06:33:47;3.00;99.90
12720;DHT22;6424;48.520;11.228;2022-11-30T06:36:28;3.00;99.90
12720;DHT22;6424;48.520;11.228;2022-11-30T06:38:54;3.00;99.90
12720;DHT22;6424;48.520;11.228;2022-11-30T06:41:35;3.00;99.90
12720;DHT22;6424;48.520;11.228;2022-11-30T06:44:16;3.00;99.90
12720;DHT22;6424;48.520;11.228;2022-11-30T06:46:56;2.90;99.90
12720;DHT22;6424;48.520;11.228;2022-11-30T06:49:37;3.00;99.90
12720;DHT22;6424;48.520;11.228;2022-11-30T06:52:19;2.90;99.90
12720;DHT22;6424;48.520;11.228;2022-11-30T06:54:59;2.90;99.90
12720;DHT22;6424;48.520;11.228;2022-11-30T06:57:40;2.90;99.90
12720;DHT22;6424;48.520;11.228;2022-11-30T07:00:22;3.00;99.90
12720;DHT22;6424;48.520;11.228;2022-11-30T07:03:04;2.90;99.90
12720;DHT22;6424;48.520;11.228;2022-11-30T07:05:45;2.90;99.90
12720;DHT22;6424;48.520;11.228;2022-11-30T07:08:26;2.90;99.90
12720;DHT22;6424;48.520;11.228;2022-11-30T07:11:08;3.00;99.90
12720;DHT22;6424;48.520;11.228;2022-11-30T07:13:49;3.00;99.90
12720;DHT22;6424;48.520;11.228;2022-11-30T07:16:30;3.00;99.90
12720;DHT22;6424;48.520;11.228;2022-11-30T07:19:11;3.00;99.90
12720;DHT22;6424;48.520;11.228;2022-11-30T07:21:52;3.00;99.90
12720;DHT22;6424;48.520;11.228;2022-11-30T07:24:32;3.00;99.90
12720;DHT22;6424;48.520;11.228;2022-11-30T07:27:32;3.00;99.90
12720;DHT22;6424;48.520;11.228;2022-11-30T07:30:13;3.00;99.90
12720;DHT22;6424;48.520;11.228;2022-11-30T07:32:53;3.10;99.90
12720;DHT22;6424;48.520;11.228;2022-11-30T07:35:34;3.10;99.90
12720;DHT22;6424;48.520;11.228;2022-11-30T07:38:15;3.10;99.90
12720;DHT22;6424;48.520;11.228;2022-11-30T07:40:56;3.10;99.90
12720;DHT22;6424;48.520;11.228;2022-11-30T07:43:38;3.10;99.90
12720;DHT22;6424;48.520;11.228;2022-11-30T07:46:19;3.10;99.90
12720;DHT22;6424;48.520;11.228;2022-11-30T07:49:00;3.10;99.90
12720;DHT22;6424;48.520;11.228;2022-11-30T07:51:41;3.10;99.90
12720;DHT22;6424;48.520;11.228;2022-11-30T07:54:21;3.10;99.90
12720;DHT22;6424;48.520;11.228;2022-11-30T07:57:02;3.20;99.90
12720;DHT22;6424;48.520;11.228;2022-11-30T07:59:43;3.20;99.90
12720;DHT22;6424;48.520;11.228;2022-11-30T08:02:24;3.20;99.90
12720;DHT22;6424;48.520;11.228;2022-11-30T08:05:05;3.20;99.90
12720;DHT22;6424;48.520;11.228;2022-11-30T08:07:31;3.20;99.90
12720;DHT22;6424;48.520;11.228;2022-11-30T08:10:11;3.20;99.90
12720;DHT22;6424;48.520;11.228;2022-11-30T08:12:52;3.20;99.90
12720;DHT22;6424;48.520;11.228;2022-11-30T08:15:33;3.20;99.90
12720;DHT22;6424;48.520;11.228;2022-11-30T08:17:59;3.20;99.90
12720;DHT22;6424;48.520;11.228;2022-11-30T08:20:44;3.30;99.90
12720;DHT22;6424;48.520;11.228;2022-11-30T08:23:29;3.20;99.90
12720;DHT22;6424;48.520;11.228;2022-11-30T08:26:13;3.20;99.90
12720;DHT22;6424;48.520;11.228;2022-11-30T08:28:56;3.30;99.90
12720;DHT22;6424;48.520;11.228;2022-11-30T08:31:37;3.30;99.90
12720;DHT22;6424;48.520;11.228;2022-11-30T08:34:18;3.30;99.90
12720;DHT22;6424;48.520;11.228;2022-11-30T08:36:44;3.30;99.90
12720;DHT22;6424;48.520;11.228;2022-11-30T08:39:24;3.40;99.90
12720;DHT22;6424;48.520;11.228;2022-11-30T08:41:53;3.40;99.90
12720;DHT22;6424;48.520;11.228;2022-11-30T08:44:33;3.40;99.90
12720;DHT22;6424;48.520;11.228;2022-11-30T08:47:14;3.40;99.90
12720;DHT22;6424;48.520;11.228;2022-11-30T08:49:56;3.50;99.90
12720;DHT22;6424;48.520;11.228;2022-11-30T08:52:37;3.50;99.90
12720;DHT22;6424;48.520;11.228;2022-11-30T08:55:18;3.50;99.90
12720;DHT22;6424;48.520;11.228;2022-11-30T08:57:58;3.50;99.90
12720;DHT22;6424;48.520;11.228;2022-11-30T09:00:39;3.40;99.90
12720;DHT22;6424;48.520;11.228;2022-11-30T09:03:20;3.40;99.90
12720;DHT22;6424;48.520;11.228;2022-11-30T09:08:52;3.40;99.90
12720;DHT22;6424;48.520;11.228;2022-11-30T09:14:02;3.50;99.90
12720;DHT22;6424;48.520;11.228;2022-11-30T09:16:44;3.50;99.90
12720;DHT22;6424;48.520;11.228;2022-11-30T09:19:25;3.50;99.90
12720;DHT22;6424;48.520;11.228;2022-11-30T09:22:06;3.50;99.90
12720;DHT22;6424;48.520;11.228;2022-11-30T09:24:46;3.50;99.90
12720;DHT22;6424;48.520;11.228;2022-11-30T09:27:31;3.50;99.90
12720;DHT22;6424;48.520;11.228;2022-11-30T09:30:12;3.50;99.90
12720;DHT22;6424;48.520;11.228;2022-11-30T09:32:53;3.50;99.90
12720;DHT22;6424;48.520;11.228;2022-11-30T09:35:33;3.50;99.90
12720;DHT22;6424;48.520;11.228;2022-11-30T09:38:14;3.50;99.90
12720;DHT22;6424;48.520;11.228;2022-11-30T09:41:01;3.60;99.90
12720;DHT22;6424;48.520;11.228;2022-11-30T09:46:32;3.60;99.90
12720;DHT22;6424;48.520;11.228;2022-11-30T09:49:03;3.60;99.90
12720;DHT22;6424;48.520;11.228;2022-11-30T09:51:48;3.60;99.90
12720;DHT22;6424;48.520;11.228;2022-11-30T09:54:37;3.60;99.90
12720;DHT22;6424;48.520;11.228;2022-11-30T10:02:56;3.70;99.90
12720;DHT22;6424;48.520;11.228;2022-11-30T10:06:07;3.70;99.90
12720;DHT22;6424;48.520;11.228;2022-11-30T10:20:48;3.80;99.90
12720;DHT22;6424;48.520;11.228;2022-11-30T10:26:35;3.90;99.90
12720;DHT22;6424;48.520;11.228;2022-11-30T10:29:20;3.80;99.90
12720;DHT22;6424;48.520;11.228;2022-11-30T10:32:18;3.90;99.90
12720;DHT22;6424;48.520;11.228;2022-11-30T10:35:12;3.90;99.90
12720;DHT22;6424;48.520;11.228;2022-11-30T10:37:56;3.90;99.90
12720;DHT22;6424;48.520;11.228;2022-11-30T10:40:50;3.90;99.90
12720;DHT22;6424;48.520;11.228;2022-11-30T10:43:46;4.00;99.90
12720;DHT22;6424;48.520;11.228;2022-11-30T10:46:32;4.00;99.90
12720;DHT22;6424;48.520;11.228;2022-11-30T10:49:18;4.00;99.90
12720;DHT22;6424;48.520;11.228;2022-11-30T10:52:05;4.10;99.90
12720;DHT22;6424;48.520;11.228;2022-11-30T10:54:48;4.00;99.90
12720;DHT22;6424;48.520;11.228;2022-11-30T10:57:31;4.00;99.90
12720;DHT22;6424;48.520;11.228;2022-11-30T11:00:13;4.10;99.90
12720;DHT22;6424;48.520;11.228;2022-11-30T11:02:56;4.00;99.90
12720;DHT22;6424;48.520;11.228;2022-11-30T11:05:36;4.00;99.90
12720;DHT22;6424;48.520;11.228;2022-11-30T11:08:25;4.00;99.90
12720;DHT22;6424;48.520;11.228;2022-11-30T11:11:36;3.90;99.90
12720;DHT22;6424;48.520;11.228;2022-11-30T11:14:21;3.90;99.90
12720;DHT22;6424;48.520;11.228;2022-11-30T11:19:57;3.90;99.90
12720;DHT22;6424;48.520;11.228;2022-11-30T11:22:38;3.80;99.90
12720;DHT22;6424;48.520;11.228;2022-11-30T11:25:37;3.80;99.90
12720;DHT22;6424;48.520;11.228;2022-11-30T11:28:23;3.70;99.90
12720;DHT22;6424;48.520;11.228;2022-11-30T11:31:22;3.80;99.90
12720;DHT22;6424;48.520;11.228;2022-11-30T11:34:25;3.80;99.90
12720;DHT22;6424;48.520;11.228;2022-11-30T11:37:31;3.70;99.90
12720;DHT22;6424;48.520;11.228;2022-11-30T11:40:14;3.70;99.90
12720;DHT22;6424;48.520;11.228;2022-11-30T11:42:55;3.70;99.90
12720;DHT22;6424;48.520;11.228;2022-11-30T11:45:37;3.70;99.90
12720;DHT22;6424;48.520;11.228;2022-11-30T11:48:38;3.80;99.90
12720;DHT22;6424;48.520;11.228;2022-11-30T11:51:29;3.70;99.90
12720;DHT22;6424;48.520;11.228;2022-11-30T11:57:52;3.70;99.90
12720;DHT22;6424;48.520;11.228;2022-11-30T12:00:34;3.70;99.90
12720;DHT22;6424;48.520;11.228;2022-11-30T12:03:30;3.60;99.90
12720;DHT22;6424;48.520;11.228;2022-11-30T12:06:15;3.60;99.90
12720;DHT22;6424;48.520;11.228;2022-11-30T12:09:04;3.70;99.90
12720;DHT22;6424;48.520;11.228;2022-11-30T12:11:48;3.70;99.90
12720;DHT22;6424;48.520;11.228;2022-11-30T12:14:30;3.70;99.90
12720;DHT22;6424;48.520;11.228;2022-11-30T12:26:31;3.70;99.90
12720;DHT22;6424;48.520;11.228;2022-11-30T12:29:24;3.70;99.90
12720;DHT22;6424;48.520;11.228;2022-11-30T12:38:01;3.80;99.90
12720;DHT22;6424;48.520;11.228;2022-11-30T12:47:28;3.80;99.90
12720;DHT22;6424;48.520;11.228;2022-11-30T13:04:39;3.70;99.90
12720;DHT22;6424;48.520;11.228;2022-11-30T13:07:21;3.80;99.90
12720;DHT22;6424;48.520;11.228;2022-11-30T13:12:46;3.70;99.90
12720;DHT22;6424;48.520;11.228;2022-11-30T13:15:31;3.70;99.90
12720;DHT22;6424;48.520;11.228;2022-11-30T13:18:17;3.70;99.90
12720;DHT22;6424;48.520;11.228;2022-11-30T13:30:12;3.50;99.90
12720;DHT22;6424;48.520;11.228;2022-11-30T13:32:59;3.50;99.90
12720;DHT22;6424;48.520;11.228;2022-11-30T13:35:57;3.50;99.90
12720;DHT22;6424;48.520;11.228;2022-11-30T13:38:38;3.40;99.90
12720;DHT22;6424;48.520;11.228;2022-11-30T13:41:19;3.50;99.90
12720;DHT22;6424;48.520;11.228;2022-11-30T13:44:00;3.50;99.90
12720;DHT22;6424;48.520;11.228;2022-11-30T13:46:50;3.50;99.90
12720;DHT22;6424;48.520;11.228;2022-11-30T13:49:35;3.50;99.90
12720;DHT22;6424;48.520;11.228;2022-11-30T13:55:44;3.50;99.90
12720;DHT22;6424;48.520;11.228;2022-11-30T13:58:26;3.50;99.90
12720;DHT22;6424;48.520;11.228;2022-11-30T14:01:24;3.50;99.90
12720;DHT22;6424;48.520;11.228;2022-11-30T14:06:59;3.50;99.90
12720;DHT22;6424;48.520;11.228;2022-11-30T14:18:29;3.60;99.90
12720;DHT22;6424;48.520;11.228;2022-11-30T14:21:31;3.60;99.90
12720;DHT22;6424;48.520;11.228;2022-11-30T14:24:19;3.50;99.90
12720;DHT22;6424;48.520;11.228;2022-11-30T14:27:01;3.50;99.90
12720;DHT22;6424;48.520;11.228;2022-11-30T14:29:43;3.60;99.90
12720;DHT22;6424;48.520;11.228;2022-11-30T14:32:27;3.60;99.90
12720;DHT22;6424;48.520;11.228;2022-11-30T14:35:13;3.60;99.90
12720;DHT22;6424;48.520;11.228;2022-11-30T14:37:57;3.50;99.90
12720;DHT22;6424;48.520;11.228;2022-11-30T14:40:49;3.50;99.90
12720;DHT22;6424;48.520;11.228;2022-11-30T14:43:30;3.50;99.90
12720;DHT22;6424;48.520;11.228;2022-11-30T14:46:16;3.50;99.90
12720;DHT22;6424;48.520;11.228;2022-11-30T14:49:15;3.50;99.90
12720;DHT22;6424;48.520;11.228;2022-11-30T14:52:02;3.50;99.90
12720;DHT22;6424;48.520;11.228;2022-11-30T15:00:34;3.50;99.90
12720;DHT22;6424;48.520;11.228;2022-11-30T15:03:27;3.40;99.90
12720;DHT22;6424;48.520;11.228;2022-11-30T15:06:15;3.40;99.90
12720;DHT22;6424;48.520;11.228;2022-11-30T15:08:58;3.40;99.90
12720;DHT22;6424;48.520;11.228;2022-11-30T15:11:41;3.40;99.90
12720;DHT22;6424;48.520;11.228;2022-11-30T15:14:23;3.40;99.90
12720;DHT22;6424;48.520;11.228;2022-11-30T15:17:13;3.40;99.90
12720;DHT22;6424;48.520;11.228;2022-11-30T15:19:54;3.40;99.90
12720;DHT22;6424;48.520;11.228;2022-11-30T15:22:34;3.30;99.90
12720;DHT22;6424;48.520;11.228;2022-11-30T15:25:15;3.30;99.90
12720;DHT22;6424;48.520;11.228;2022-11-30T15:27:57;3.30;99.90
12720;DHT22;6424;48.520;11.228;2022-11-30T15:30:40;3.20;99.90
12720;DHT22;6424;48.520;11.228;2022-11-30T15:33:24;3.20;99.90
12720;DHT22;6424;48.520;11.228;2022-11-30T15:36:08;3.20;99.90
12720;DHT22;6424;48.520;11.228;2022-11-30T15:38:49;3.20;99.90
12720;DHT22;6424;48.520;11.228;2022-11-30T15:41:32;3.20;99.90
12720;DHT22;6424;48.520;11.228;2022-11-30T15:47:00;3.20;99.90
12720;DHT22;6424;48.520;11.228;2022-11-30T15:49:50;3.30;99.90
12720;DHT22;6424;48.520;11.228;2022-11-30T15:52:32;3.20;99.90
12720;DHT22;6424;48.520;11.228;2022-11-30T15:58:35;3.20;99.90
12720;DHT22;6424;48.520;11.228;2022-11-30T16:01:20;3.20;99.90
12720;DHT22;6424;48.520;11.228;2022-11-30T16:04:04;3.20;99.90
12720;DHT22;6424;48.520;11.228;2022-11-30T16:06:46;3.10;99.90
12720;DHT22;6424;48.520;11.228;2022-11-30T16:09:28;3.10;99.90
12720;DHT22;6424;48.520;11.228;2022-11-30T16:12:26;3.10;99.90
12720;DHT22;6424;48.520;11.228;2022-11-30T16:18:14;3.10;99.90
12720;DHT22;6424;48.520;11.228;2022-11-30T16:20:57;3.10;99.90
12720;DHT22;6424;48.520;11.228;2022-11-30T16:23:38;3.10;99.90
12720;DHT22;6424;48.520;11.228;2022-11-30T16:26:19;3.10;99.90
12720;DHT22;6424;48.520;11.228;2022-11-30T16:29:00;3.00;99.90
12720;DHT22;6424;48.520;11.228;2022-11-30T16:31:42;2.90;99.90
12720;DHT22;6424;48.520;11.228;2022-11-30T16:34:22;2.90;99.90
12720;DHT22;6424;48.520;11.228;2022-11-30T16:37:03;3.00;99.90
12720;DHT22;6424;48.520;11.228;2022-11-30T16:39:44;3.00;99.90
12720;DHT22;6424;48.520;11.228;2022-11-30T16:42:25;3.00;99.90
12720;DHT22;6424;48.520;11.228;2022-11-30T16:45:16;2.90;99.90
12720;DHT22;6424;48.520;11.228;2022-11-30T16:47:58;3.00;99.90
12720;DHT22;6424;48.520;11.228;2022-11-30T16:50:39;3.00;99.90
12720;DHT22;6424;48.520;11.228;2022-11-30T16:53:08;3.00;99.90
12720;DHT22;6424;48.520;11.228;2022-11-30T16:55:49;3.00;99.90
12720;DHT22;6424;48.520;11.228;2022-11-30T16:58:30;2.90;99.90
12720;DHT22;6424;48.520;11.228;2022-11-30T17:04:20;2.90;99.90
12720;DHT22;6424;48.520;11.228;2022-11-30T17:07:02;2.90;99.90
12720;DHT22;6424;48.520;11.228;2022-11-30T17:09:43;2.90;99.90
12720;DHT22;6424;48.520;11.228;2022-11-30T17:12:23;2.80;99.90
12720;DHT22;6424;48.520;11.228;2022-11-30T17:14:49;2.80;99.90
12720;DHT22;6424;48.520;11.228;2022-11-30T17:17:30;2.80;99.90
12720;DHT22;6424;48.520;11.228;2022-11-30T17:20:12;2.70;99.90
12720;DHT22;6424;48.520;11.228;2022-11-30T17:22:53;2.70;99.90
12720;DHT22;6424;48.520;11.228;2022-11-30T17:25:34;2.70;99.90
12720;DHT22;6424;48.520;11.228;2022-11-30T17:28:15;2.70;99.90
12720;DHT22;6424;48.520;11.228;2022-11-30T17:30:56;2.70;99.90
12720;DHT22;6424;48.520;11.228;2022-11-30T17:33:36;2.70;99.90
12720;DHT22;6424;48.520;11.228;2022-11-30T17:36:18;2.70;99.90
12720;DHT22;6424;48.520;11.228;2022-11-30T17:39:04;2.80;99.90
12720;DHT22;6424;48.520;11.228;2022-11-30T17:41:45;2.80;99.90
12720;DHT22;6424;48.520;11.228;2022-11-30T17:44:25;2.80;99.90
12720;DHT22;6424;48.520;11.228;2022-11-30T17:47:06;2.70;99.90
12720;DHT22;6424;48.520;11.228;2022-11-30T17:49:48;2.70;99.90
12720;DHT22;6424;48.520;11.228;2022-11-30T17:52:29;2.70;99.90
12720;DHT22;6424;48.520;11.228;2022-11-30T17:55:09;2.70;99.90
12720;DHT22;6424;48.520;11.228;2022-11-30T17:57:50;2.70;99.90
12720;DHT22;6424;48.520;11.228;2022-11-30T18:00:31;2.70;99.90
12720;DHT22;6424;48.520;11.228;2022-11-30T18:03:12;2.70;99.90
12720;DHT22;6424;48.520;11.228;2022-11-30T18:05:52;2.60;99.90
12720;DHT22;6424;48.520;11.228;2022-11-30T18:08:33;2.60;99.90
12720;DHT22;6424;48.520;11.228;2022-11-30T18:11:17;2.70;99.90
12720;DHT22;6424;48.520;11.228;2022-11-30T18:14:00;2.60;99.90
12720;DHT22;6424;48.520;11.228;2022-11-30T18:16:43;2.70;99.90
12720;DHT22;6424;48.520;11.228;2022-11-30T18:19:24;2.70;99.90
12720;DHT22;6424;48.520;11.228;2022-11-30T18:22:04;2.70;99.90
12720;DHT22;6424;48.520;11.228;2022-11-30T18:24:30;2.60;99.90
12720;DHT22;6424;48.520;11.228;2022-11-30T18:27:11;2.60;99.90
12720;DHT22;6424;48.520;11.228;2022-11-30T18:29:37;2.60;99.90
12720;DHT22;6424;48.520;11.228;2022-11-30T18:32:17;2.60;99.90
12720;DHT22;6424;48.520;11.228;2022-11-30T18:34:58;2.60;99.90
12720;DHT22;6424;48.520;11.228;2022-11-30T18:37:24;2.60;99.90
12720;DHT22;6424;48.520;11.228;2022-11-30T18:40:05;2.60;99.90
12720;DHT22;6424;48.520;11.228;2022-11-30T18:42:46;2.60;99.90
12720;DHT22;6424;48.520;11.228;2022-11-30T18:45:27;2.60;99.90
12720;DHT22;6424;48.520;11.228;2022-11-30T18:48:10;2.60;99.90
12720;DHT22;6424;48.520;11.228;2022-11-30T18:50:51;2.60;99.90
12720;DHT22;6424;48.520;11.228;2022-11-30T18:53:32;2.60;99.90
12720;DHT22;6424;48.520;11.228;2022-11-30T18:56:18;2.60;99.90
12720;DHT22;6424;48.520;11.228;2022-11-30T18:58:44;2.70;99.90
12720;DHT22;6424;48.520;11.228;2022-11-30T19:01:26;2.70;99.90
12720;DHT22;6424;48.520;11.228;2022-11-30T19:04:09;2.60;99.90
12720;DHT22;6424;48.520;11.228;2022-11-30T19:06:50;2.60;99.90
12720;DHT22;6424;48.520;11.228;2022-11-30T19:09:16;2.60;99.90
12720;DHT22;6424;48.520;11.228;2022-11-30T19:11:58;2.60;99.90
12720;DHT22;6424;48.520;11.228;2022-11-30T19:14:39;2.60;99.90
12720;DHT22;6424;48.520;11.228;2022-11-30T19:17:22;2.60;99.90
12720;DHT22;6424;48.520;11.228;2022-11-30T19:20:03;2.60;99.90
12720;DHT22;6424;48.520;11.228;2022-11-30T19:22:44;2.60;99.90
12720;DHT22;6424;48.520;11.228;2022-11-30T19:25:25;2.60;99.90
12720;DHT22;6424;48.520;11.228;2022-11-30T19:28:05;2.60;99.90
12720;DHT22;6424;48.520;11.228;2022-11-30T19:30:46;2.50;99.90
12720;DHT22;6424;48.520;11.228;2022-11-30T19:33:27;2.60;99.90